EGNV/MME METAR and TAF weather

Enter ICAO airport designator
Station Type Date Time Source
EGNV METAR 2018/12/12 15:50 UTC NOAA

EGNV 121550Z 15011KT CAVOK 04/00 Q1021


Station Type Date Time Source
EGNV Decoded METAR 2018/12/12 15:50 UTC NOAA

Tees-Side, United Kingdom (EGNV) 54-31N 001-25W
Dec 12, 2018 - 10:50 AM EST / 2018.12.12 1550 UTC
Wind: from the SSE (150 degrees) at 13 MPH (11 KT):0
Visibility: greater than 7 mile(s):0
Temperature: 39 F (4 C)
Dew Point: 32 F (0 C)
Relative Humidity: 75%
Pressure (altimeter): 30.15 in. Hg (1021 hPa)
ob: EGNV 121550Z 15011KT CAVOK 04/00 Q1021
cycle: 16

Station Type Date Time Source
EGNV TAF 2016/01/23 12:00 UTC NOAA

TAF EGNV 231059Z 2312/2321 18008KT 9999 FEW030 PROB40 2319/2321 6000 RADZ BKN014


Example: see airport list